Seymour Johnson Air Force Base Goldsboro US
ICAO: KGSB
IATA: GSB
Category: Large
Scheduled Services: No

Elevation: 109 ft
TransAlt. 18000 ft.

Airport Communications:
APP:119.7
ATIS:31.762
CLNC DEL:128.025
DEP:119.7
GND:138.1
ACC SOF:37.61
PMSV METRO:32.392
916TH COMD POST:31.1
4FW COMD POST:31.1
PTD:37.22
TWR:126.25

KGSB Zoom In..

If you have problems with the map follow the link
https://www.worldairports.se/pages/airport.php?
ICAO=KGSB

Runways:

(A) RW 08 length 11760 ft width 300 ft
ILS 109.30 / hdg 81

(B) RW 26 length 11760 ft width 300 ft
ILS 109.90 / hdg 261

Location; KGSB
Day. 16 / Time. 02.59 Zulu
* Altimeter: 29.86
* Temperature: 06° c. 42.8°f.
* Wind from: 260° Speed 13 kn.
Dewpoint: 05° c.
Visibility: 10 Statute Miles.
Clouds: Overcast 900 ft.

KGSB 160259Z AUTO 26013KT 10SM OVC009 06/05 A2986 RMK AO2 SLP115 $


Wind From 260°
Speed 13 kn.

 
 
jpsmedia.com for Web Design worldairports.se 2018   terms of use